Terminal Aerodrome Forecast
Issued by NWS Atlanta, GA

Home | Current Version | Previous Version | Text Only | Print | Product List | Glossary On
Versions: 1 2 3 4 5 6 7 8 9 10 11 12 13 14 15 16 17 18 19 20 21 22 23 24 25 26 27 28 29 30 31 32 33 34 35 36 37 38 39
000
FTUS42 KFFC 210930 AAC
TAFATL
TAF AMD
KATL 210930Z 2110/2212 19006KT 1/2SM FG OVC002
     FM211300 16007KT 3SM -SHRA BKN005 OVC015
      TEMPO 2115/2119 2SM TSRA SCT007 OVC015CB
     FM212100 12008KT P6SM VCSH BKN025
     FM220000 12005KT 6SM BR BKN008 OVC012
     FM220600 16006KT 4SM -SHRA BKN006 OVC012 PROB30 2207/2211 2SM
      TSRA BKN006 OVC012CB=

USA.gov is the U.S. government's official web portal to all federal, state and local government web resources and services.